sensor_id;sensor_type;location;lat;lon;timestamp;temperature;humidity
33580;DHT22;19909;43.644;-79.438;2023-03-14T00:00:06;15.50;37.60
33580;DHT22;19909;43.644;-79.438;2023-03-14T00:02:34;15.50;37.60
33580;DHT22;19909;43.644;-79.438;2023-03-14T00:05:00;15.50;37.70
33580;DHT22;19909;43.644;-79.438;2023-03-14T00:07:34;15.50;37.70
33580;DHT22;19909;43.644;-79.438;2023-03-14T00:10:09;15.50;37.80
33580;DHT22;19909;43.644;-79.438;2023-03-14T00:12:36;15.50;37.60
33580;DHT22;19909;43.644;-79.438;2023-03-14T00:15:03;15.50;37.60
33580;DHT22;19909;43.644;-79.438;2023-03-14T00:17:30;15.50;38.30
33580;DHT22;19909;43.644;-79.438;2023-03-14T00:19:57;15.50;37.70
33580;DHT22;19909;43.644;-79.438;2023-03-14T00:22:24;15.50;37.80
33580;DHT22;19909;43.644;-79.438;2023-03-14T00:24:50;15.50;37.70
33580;DHT22;19909;43.644;-79.438;2023-03-14T00:27:16;15.50;37.60
33580;DHT22;19909;43.644;-79.438;2023-03-14T00:29:43;15.50;37.60
33580;DHT22;19909;43.644;-79.438;2023-03-14T00:32:09;15.50;37.70
33580;DHT22;19909;43.644;-79.438;2023-03-14T00:34:36;15.50;37.70
33580;DHT22;19909;43.644;-79.438;2023-03-14T00:37:02;15.50;37.80
33580;DHT22;19909;43.644;-79.438;2023-03-14T00:39:28;15.50;37.70
33580;DHT22;19909;43.644;-79.438;2023-03-14T00:41:54;15.50;37.60
33580;DHT22;19909;43.644;-79.438;2023-03-14T00:44:20;15.50;37.50
33580;DHT22;19909;43.644;-79.438;2023-03-14T00:46:46;15.50;37.70
33580;DHT22;19909;43.644;-79.438;2023-03-14T00:49:13;15.50;37.70
33580;DHT22;19909;43.644;-79.438;2023-03-14T00:51:39;15.50;37.80
33580;DHT22;19909;43.644;-79.438;2023-03-14T00:54:05;15.50;37.70
33580;DHT22;19909;43.644;-79.438;2023-03-14T00:56:31;15.50;37.60
33580;DHT22;19909;43.644;-79.438;2023-03-14T00:58:58;15.50;37.50
33580;DHT22;19909;43.644;-79.438;2023-03-14T01:01:24;15.50;37.50
33580;DHT22;19909;43.644;-79.438;2023-03-14T01:03:55;15.50;37.60
33580;DHT22;19909;43.644;-79.438;2023-03-14T01:06:26;15.50;37.80
33580;DHT22;19909;43.644;-79.438;2023-03-14T01:08:54;15.50;37.70
33580;DHT22;19909;43.644;-79.438;2023-03-14T01:11:32;15.50;37.70
33580;DHT22;19909;43.644;-79.438;2023-03-14T01:13:59;15.50;37.50
33580;DHT22;19909;43.644;-79.438;2023-03-14T01:16:27;15.50;37.60
33580;DHT22;19909;43.644;-79.438;2023-03-14T01:18:54;15.50;37.60
33580;DHT22;19909;43.644;-79.438;2023-03-14T01:21:23;15.50;37.70
33580;DHT22;19909;43.644;-79.438;2023-03-14T01:23:51;15.50;37.70
33580;DHT22;19909;43.644;-79.438;2023-03-14T01:26:20;15.50;37.60
33580;DHT22;19909;43.644;-79.438;2023-03-14T01:28:47;15.50;37.50
33580;DHT22;19909;43.644;-79.438;2023-03-14T01:31:14;15.50;37.50
33580;DHT22;19909;43.644;-79.438;2023-03-14T01:33:41;15.50;37.50
33580;DHT22;19909;43.644;-79.438;2023-03-14T01:36:08;15.50;37.70
33580;DHT22;19909;43.644;-79.438;2023-03-14T01:38:37;15.50;37.70
33580;DHT22;19909;43.644;-79.438;2023-03-14T01:41:04;15.50;37.60
33580;DHT22;19909;43.644;-79.438;2023-03-14T01:43:30;15.50;37.50
33580;DHT22;19909;43.644;-79.438;2023-03-14T01:48:50;15.50;37.50
33580;DHT22;19909;43.644;-79.438;2023-03-14T01:51:37;15.40;37.50
33580;DHT22;19909;43.644;-79.438;2023-03-14T01:54:21;15.40;38.10
33580;DHT22;19909;43.644;-79.438;2023-03-14T01:56:53;15.40;37.40
33580;DHT22;19909;43.644;-79.438;2023-03-14T01:59:20;15.40;37.30
33580;DHT22;19909;43.644;-79.438;2023-03-14T02:01:47;15.50;37.50
33580;DHT22;19909;43.644;-79.438;2023-03-14T02:04:17;15.40;37.50
33580;DHT22;19909;43.644;-79.438;2023-03-14T02:06:55;15.40;37.70
33580;DHT22;19909;43.644;-79.438;2023-03-14T02:09:23;15.50;37.60
33580;DHT22;19909;43.644;-79.438;2023-03-14T02:11:50;15.40;37.40
33580;DHT22;19909;43.644;-79.438;2023-03-14T02:14:32;15.40;37.40
33580;DHT22;19909;43.644;-79.438;2023-03-14T02:17:01;15.40;37.50
33580;DHT22;19909;43.644;-79.438;2023-03-14T02:19:56;15.40;37.60
33580;DHT22;19909;43.644;-79.438;2023-03-14T02:22:25;15.40;37.60
33580;DHT22;19909;43.644;-79.438;2023-03-14T02:27:19;15.50;37.40
33580;DHT22;19909;43.644;-79.438;2023-03-14T02:29:51;15.40;37.30
33580;DHT22;19909;43.644;-79.438;2023-03-14T02:32:20;15.40;37.40
33580;DHT22;19909;43.644;-79.438;2023-03-14T02:34:49;15.40;37.50
33580;DHT22;19909;43.644;-79.438;2023-03-14T02:37:18;15.40;37.50
33580;DHT22;19909;43.644;-79.438;2023-03-14T02:39:46;15.40;37.50
33580;DHT22;19909;43.644;-79.438;2023-03-14T02:42:15;15.40;37.40
33580;DHT22;19909;43.644;-79.438;2023-03-14T02:44:59;15.40;37.30
33580;DHT22;19909;43.644;-79.438;2023-03-14T02:47:29;15.40;37.40
33580;DHT22;19909;43.644;-79.438;2023-03-14T02:50:02;15.40;37.50
33580;DHT22;19909;43.644;-79.438;2023-03-14T02:52:29;15.40;37.40
33580;DHT22;19909;43.644;-79.438;2023-03-14T02:54:55;15.40;37.40
33580;DHT22;19909;43.644;-79.438;2023-03-14T02:57:21;15.50;37.30
33580;DHT22;19909;43.644;-79.438;2023-03-14T02:59:48;15.50;37.40
33580;DHT22;19909;43.644;-79.438;2023-03-14T03:02:14;15.40;37.40
33580;DHT22;19909;43.644;-79.438;2023-03-14T03:04:40;15.40;37.50
33580;DHT22;19909;43.644;-79.438;2023-03-14T03:07:06;15.40;37.50
33580;DHT22;19909;43.644;-79.438;2023-03-14T03:09:32;15.40;37.40
33580;DHT22;19909;43.644;-79.438;2023-03-14T03:11:59;15.40;37.30
33580;DHT22;19909;43.644;-79.438;2023-03-14T03:14:25;15.40;37.30
33580;DHT22;19909;43.644;-79.438;2023-03-14T03:16:51;15.40;37.40
33580;DHT22;19909;43.644;-79.438;2023-03-14T03:19:17;15.40;37.50
33580;DHT22;19909;43.644;-79.438;2023-03-14T03:21:44;15.40;37.40
33580;DHT22;19909;43.644;-79.438;2023-03-14T03:24:10;15.40;37.30
33580;DHT22;19909;43.644;-79.438;2023-03-14T03:26:36;15.40;37.30
33580;DHT22;19909;43.644;-79.438;2023-03-14T03:29:03;15.40;37.20
33580;DHT22;19909;43.644;-79.438;2023-03-14T03:31:29;15.40;37.30
33580;DHT22;19909;43.644;-79.438;2023-03-14T03:33:57;15.40;37.40
33580;DHT22;19909;43.644;-79.438;2023-03-14T03:36:24;15.40;37.40
33580;DHT22;19909;43.644;-79.438;2023-03-14T03:38:51;15.40;37.40
33580;DHT22;19909;43.644;-79.438;2023-03-14T03:41:17;15.40;37.30
33580;DHT22;19909;43.644;-79.438;2023-03-14T03:43:43;15.40;37.30
33580;DHT22;19909;43.644;-79.438;2023-03-14T03:46:09;15.40;37.30
33580;DHT22;19909;43.644;-79.438;2023-03-14T03:48:36;15.40;37.30
33580;DHT22;19909;43.644;-79.438;2023-03-14T03:51:02;15.40;37.30
33580;DHT22;19909;43.644;-79.438;2023-03-14T03:53:29;15.40;37.30
33580;DHT22;19909;43.644;-79.438;2023-03-14T03:55:55;15.40;37.40
33580;DHT22;19909;43.644;-79.438;2023-03-14T03:58:21;15.40;37.30
33580;DHT22;19909;43.644;-79.438;2023-03-14T04:00:48;15.40;37.30
33580;DHT22;19909;43.644;-79.438;2023-03-14T04:03:15;15.40;37.30
33580;DHT22;19909;43.644;-79.438;2023-03-14T04:05:41;15.40;37.20
33580;DHT22;19909;43.644;-79.438;2023-03-14T04:08:08;15.40;36.90
33580;DHT22;19909;43.644;-79.438;2023-03-14T04:10:35;15.50;36.70
33580;DHT22;19909;43.644;-79.438;2023-03-14T04:13:01;15.50;36.60
33580;DHT22;19909;43.644;-79.438;2023-03-14T04:15:27;15.60;37.00
33580;DHT22;19909;43.644;-79.438;2023-03-14T04:17:59;15.60;37.30
33580;DHT22;19909;43.644;-79.438;2023-03-14T04:20:25;15.60;37.10
33580;DHT22;19909;43.644;-79.438;2023-03-14T04:22:51;15.70;36.80
33580;DHT22;19909;43.644;-79.438;2023-03-14T04:25:18;15.70;36.70
33580;DHT22;19909;43.644;-79.438;2023-03-14T04:27:46;15.70;36.90
33580;DHT22;19909;43.644;-79.438;2023-03-14T04:30:12;15.70;37.30
33580;DHT22;19909;43.644;-79.438;2023-03-14T04:32:39;15.70;37.30
33580;DHT22;19909;43.644;-79.438;2023-03-14T04:35:06;15.70;36.80
33580;DHT22;19909;43.644;-79.438;2023-03-14T04:37:32;15.60;36.60
33580;DHT22;19909;43.644;-79.438;2023-03-14T04:39:58;15.60;36.60
33580;DHT22;19909;43.644;-79.438;2023-03-14T04:42:24;15.60;37.00
33580;DHT22;19909;43.644;-79.438;2023-03-14T04:44:50;15.60;37.10
33580;DHT22;19909;43.644;-79.438;2023-03-14T04:47:16;15.60;37.30
33580;DHT22;19909;43.644;-79.438;2023-03-14T04:49:43;15.60;37.10
33580;DHT22;19909;43.644;-79.438;2023-03-14T04:52:09;15.60;37.50
33580;DHT22;19909;43.644;-79.438;2023-03-14T04:54:35;15.60;37.00
33580;DHT22;19909;43.644;-79.438;2023-03-14T04:57:01;15.60;37.10
33580;DHT22;19909;43.644;-79.438;2023-03-14T04:59:28;15.60;37.20
33580;DHT22;19909;43.644;-79.438;2023-03-14T05:01:54;15.60;37.20
33580;DHT22;19909;43.644;-79.438;2023-03-14T05:04:20;15.60;37.20
33580;DHT22;19909;43.644;-79.438;2023-03-14T05:06:46;15.60;36.90
33580;DHT22;19909;43.644;-79.438;2023-03-14T05:09:12;15.60;37.00
33580;DHT22;19909;43.644;-79.438;2023-03-14T05:11:38;15.60;37.10
33580;DHT22;19909;43.644;-79.438;2023-03-14T05:14:04;15.60;37.10
33580;DHT22;19909;43.644;-79.438;2023-03-14T05:16:30;15.60;37.20
33580;DHT22;19909;43.644;-79.438;2023-03-14T05:18:56;15.50;37.20
33580;DHT22;19909;43.644;-79.438;2023-03-14T05:21:23;15.60;37.20
33580;DHT22;19909;43.644;-79.438;2023-03-14T05:23:49;15.60;37.10
33580;DHT22;19909;43.644;-79.438;2023-03-14T05:26:15;15.60;37.10
33580;DHT22;19909;43.644;-79.438;2023-03-14T05:28:43;15.60;37.10
33580;DHT22;19909;43.644;-79.438;2023-03-14T05:31:10;15.60;37.20
33580;DHT22;19909;43.644;-79.438;2023-03-14T05:33:36;15.60;37.10
33580;DHT22;19909;43.644;-79.438;2023-03-14T05:36:02;15.50;37.10
33580;DHT22;19909;43.644;-79.438;2023-03-14T05:38:29;15.60;37.10
33580;DHT22;19909;43.644;-79.438;2023-03-14T05:40:55;15.50;37.10
33580;DHT22;19909;43.644;-79.438;2023-03-14T05:43:21;15.50;37.10
33580;DHT22;19909;43.644;-79.438;2023-03-14T05:45:47;15.50;37.10
33580;DHT22;19909;43.644;-79.438;2023-03-14T05:48:14;15.50;37.10
33580;DHT22;19909;43.644;-79.438;2023-03-14T05:50:40;15.50;37.10
33580;DHT22;19909;43.644;-79.438;2023-03-14T05:53:06;15.50;37.10
33580;DHT22;19909;43.644;-79.438;2023-03-14T05:55:32;15.50;37.10
33580;DHT22;19909;43.644;-79.438;2023-03-14T05:57:58;15.50;37.10
33580;DHT22;19909;43.644;-79.438;2023-03-14T06:00:24;15.50;37.10
33580;DHT22;19909;43.644;-79.438;2023-03-14T06:02:50;15.50;37.20
33580;DHT22;19909;43.644;-79.438;2023-03-14T06:05:17;15.50;37.00
33580;DHT22;19909;43.644;-79.438;2023-03-14T06:07:43;15.50;37.00
33580;DHT22;19909;43.644;-79.438;2023-03-14T06:10:10;15.50;37.00
33580;DHT22;19909;43.644;-79.438;2023-03-14T06:12:36;15.50;37.00
33580;DHT22;19909;43.644;-79.438;2023-03-14T06:15:02;15.50;37.10
33580;DHT22;19909;43.644;-79.438;2023-03-14T06:17:28;15.50;37.10
33580;DHT22;19909;43.644;-79.438;2023-03-14T06:19:54;15.50;36.90
33580;DHT22;19909;43.644;-79.438;2023-03-14T06:22:20;15.50;36.60
33580;DHT22;19909;43.644;-79.438;2023-03-14T06:24:47;15.60;36.50
33580;DHT22;19909;43.644;-79.438;2023-03-14T06:27:13;15.60;36.90
33580;DHT22;19909;43.644;-79.438;2023-03-14T06:29:40;15.70;37.10
33580;DHT22;19909;43.644;-79.438;2023-03-14T06:32:06;15.70;37.10
33580;DHT22;19909;43.644;-79.438;2023-03-14T06:34:32;15.70;36.60
33580;DHT22;19909;43.644;-79.438;2023-03-14T06:36:59;15.70;36.40
33580;DHT22;19909;43.644;-79.438;2023-03-14T06:39:25;15.70;36.20
33580;DHT22;19909;43.644;-79.438;2023-03-14T06:41:51;15.70;36.70
33580;DHT22;19909;43.644;-79.438;2023-03-14T06:44:17;15.70;36.80
33580;DHT22;19909;43.644;-79.438;2023-03-14T06:46:43;15.70;37.10
33580;DHT22;19909;43.644;-79.438;2023-03-14T06:49:09;15.70;36.80
33580;DHT22;19909;43.644;-79.438;2023-03-14T06:51:35;15.70;36.40
33580;DHT22;19909;43.644;-79.438;2023-03-14T06:54:02;15.70;36.30
33580;DHT22;19909;43.644;-79.438;2023-03-14T06:56:28;15.70;36.80
33580;DHT22;19909;43.644;-79.438;2023-03-14T06:58:54;15.70;36.90
33580;DHT22;19909;43.644;-79.438;2023-03-14T07:01:24;15.70;37.00
33580;DHT22;19909;43.644;-79.438;2023-03-14T07:03:51;15.60;36.70
33580;DHT22;19909;43.644;-79.438;2023-03-14T07:06:17;15.60;36.60
33580;DHT22;19909;43.644;-79.438;2023-03-14T07:08:43;15.60;36.50
33580;DHT22;19909;43.644;-79.438;2023-03-14T07:11:09;15.60;36.80
33580;DHT22;19909;43.644;-79.438;2023-03-14T07:13:39;15.60;36.90
33580;DHT22;19909;43.644;-79.438;2023-03-14T07:16:05;15.60;36.90
33580;DHT22;19909;43.644;-79.438;2023-03-14T07:18:32;15.60;36.90
33580;DHT22;19909;43.644;-79.438;2023-03-14T07:20:58;15.60;36.70
33580;DHT22;19909;43.644;-79.438;2023-03-14T07:23:25;15.60;36.60
33580;DHT22;19909;43.644;-79.438;2023-03-14T07:25:51;15.60;36.30
33580;DHT22;19909;43.644;-79.438;2023-03-14T07:28:19;15.60;36.10
33580;DHT22;19909;43.644;-79.438;2023-03-14T07:30:46;15.70;36.00
33580;DHT22;19909;43.644;-79.438;2023-03-14T07:33:13;15.80;36.00
33580;DHT22;19909;43.644;-79.438;2023-03-14T07:35:39;15.90;36.40
33580;DHT22;19909;43.644;-79.438;2023-03-14T07:38:05;15.90;36.80
33580;DHT22;19909;43.644;-79.438;2023-03-14T07:40:32;15.80;36.80
33580;DHT22;19909;43.644;-79.438;2023-03-14T07:42:58;15.90;37.30
33580;DHT22;19909;43.644;-79.438;2023-03-14T07:45:24;15.90;36.90
33580;DHT22;19909;43.644;-79.438;2023-03-14T07:47:50;15.90;36.40
33580;DHT22;19909;43.644;-79.438;2023-03-14T07:50:16;15.90;36.10
33580;DHT22;19909;43.644;-79.438;2023-03-14T07:52:42;15.80;35.80
33580;DHT22;19909;43.644;-79.438;2023-03-14T07:55:09;15.80;35.70
33580;DHT22;19909;43.644;-79.438;2023-03-14T07:57:36;15.80;36.30
33580;DHT22;19909;43.644;-79.438;2023-03-14T08:00:02;15.80;36.50
33580;DHT22;19909;43.644;-79.438;2023-03-14T08:02:31;15.90;36.70
33580;DHT22;19909;43.644;-79.438;2023-03-14T08:04:57;15.80;36.00
33580;DHT22;19909;43.644;-79.438;2023-03-14T08:07:23;15.80;35.80
33580;DHT22;19909;43.644;-79.438;2023-03-14T08:09:50;15.80;35.60
33580;DHT22;19909;43.644;-79.438;2023-03-14T08:12:16;15.80;36.20
33580;DHT22;19909;43.644;-79.438;2023-03-14T08:14:44;15.80;36.50
33580;DHT22;19909;43.644;-79.438;2023-03-14T08:17:10;15.80;36.60
33580;DHT22;19909;43.644;-79.438;2023-03-14T08:19:36;15.80;36.80
33580;DHT22;19909;43.644;-79.438;2023-03-14T08:22:03;15.70;35.90
33580;DHT22;19909;43.644;-79.438;2023-03-14T08:24:29;15.70;35.80
33580;DHT22;19909;43.644;-79.438;2023-03-14T08:26:55;15.80;36.40
33580;DHT22;19909;43.644;-79.438;2023-03-14T08:29:21;15.70;36.50
33580;DHT22;19909;43.644;-79.438;2023-03-14T08:31:47;15.70;36.60
33580;DHT22;19909;43.644;-79.438;2023-03-14T08:34:15;15.70;36.10
33580;DHT22;19909;43.644;-79.438;2023-03-14T08:36:42;15.70;36.10
33580;DHT22;19909;43.644;-79.438;2023-03-14T08:39:08;15.70;36.10
33580;DHT22;19909;43.644;-79.438;2023-03-14T08:41:34;15.70;36.30
33580;DHT22;19909;43.644;-79.438;2023-03-14T08:44:06;15.70;36.30
33580;DHT22;19909;43.644;-79.438;2023-03-14T08:46:33;15.70;35.80
33580;DHT22;19909;43.644;-79.438;2023-03-14T08:49:00;15.70;35.60
33580;DHT22;19909;43.644;-79.438;2023-03-14T08:51:26;15.80;35.50
33580;DHT22;19909;43.644;-79.438;2023-03-14T08:53:52;15.80;35.40
33580;DHT22;19909;43.644;-79.438;2023-03-14T08:56:19;15.90;36.00
33580;DHT22;19909;43.644;-79.438;2023-03-14T08:58:45;15.90;36.00
33580;DHT22;19909;43.644;-79.438;2023-03-14T09:01:11;15.90;35.90
33580;DHT22;19909;43.644;-79.438;2023-03-14T09:03:38;15.90;35.90
33580;DHT22;19909;43.644;-79.438;2023-03-14T09:06:06;15.90;35.50
33580;DHT22;19909;43.644;-79.438;2023-03-14T09:08:33;15.90;35.40
33580;DHT22;19909;43.644;-79.438;2023-03-14T09:10:59;15.90;35.30
33580;DHT22;19909;43.644;-79.438;2023-03-14T09:13:25;15.90;35.90
33580;DHT22;19909;43.644;-79.438;2023-03-14T09:15:53;15.90;36.20
33580;DHT22;19909;43.644;-79.438;2023-03-14T09:18:19;15.90;35.70
33580;DHT22;19909;43.644;-79.438;2023-03-14T09:20:46;15.90;35.50
33580;DHT22;19909;43.644;-79.438;2023-03-14T09:23:12;15.90;35.30
33580;DHT22;19909;43.644;-79.438;2023-03-14T09:25:39;15.90;35.60
33580;DHT22;19909;43.644;-79.438;2023-03-14T09:28:05;15.90;36.00
33580;DHT22;19909;43.644;-79.438;2023-03-14T09:30:32;15.90;36.10
33580;DHT22;19909;43.644;-79.438;2023-03-14T09:32:58;15.90;36.00
33580;DHT22;19909;43.644;-79.438;2023-03-14T09:35:25;15.80;35.40
33580;DHT22;19909;43.644;-79.438;2023-03-14T09:37:52;15.80;35.50
33580;DHT22;19909;43.644;-79.438;2023-03-14T09:40:21;15.80;35.40
33580;DHT22;19909;43.644;-79.438;2023-03-14T09:42:53;15.80;35.40
33580;DHT22;19909;43.644;-79.438;2023-03-14T09:45:37;15.80;35.20
33580;DHT22;19909;43.644;-79.438;2023-03-14T09:48:08;15.80;35.20
33580;DHT22;19909;43.644;-79.438;2023-03-14T09:50:44;15.90;35.20
33580;DHT22;19909;43.644;-79.438;2023-03-14T09:53:17;16.00;35.60
33580;DHT22;19909;43.644;-79.438;2023-03-14T09:55:46;16.00;35.50
33580;DHT22;19909;43.644;-79.438;2023-03-14T09:58:24;16.00;35.50
33580;DHT22;19909;43.644;-79.438;2023-03-14T10:00:53;16.00;35.60
33580;DHT22;19909;43.644;-79.438;2023-03-14T10:03:47;16.00;35.50
33580;DHT22;19909;43.644;-79.438;2023-03-14T10:06:14;16.00;35.10
33580;DHT22;19909;43.644;-79.438;2023-03-14T10:08:42;16.00;34.90
33580;DHT22;19909;43.644;-79.438;2023-03-14T10:11:18;16.00;35.00
33580;DHT22;19909;43.644;-79.438;2023-03-14T10:16:37;16.00;35.30
33580;DHT22;19909;43.644;-79.438;2023-03-14T10:19:10;15.90;35.20
33580;DHT22;19909;43.644;-79.438;2023-03-14T10:21:42;16.00;35.00
33580;DHT22;19909;43.644;-79.438;2023-03-14T10:24:19;15.90;34.80
33580;DHT22;19909;43.644;-79.438;2023-03-14T10:26:48;15.90;35.30
33580;DHT22;19909;43.644;-79.438;2023-03-14T10:29:15;15.90;35.80
33580;DHT22;19909;43.644;-79.438;2023-03-14T10:31:51;15.90;35.90
33580;DHT22;19909;43.644;-79.438;2023-03-14T10:34:39;15.90;35.30
33580;DHT22;19909;43.644;-79.438;2023-03-14T10:39:49;15.90;35.00
33580;DHT22;19909;43.644;-79.438;2023-03-14T10:42:24;15.90;35.60
33580;DHT22;19909;43.644;-79.438;2023-03-14T10:44:58;15.80;35.60
33580;DHT22;19909;43.644;-79.438;2023-03-14T10:47:27;15.80;34.90
33580;DHT22;19909;43.644;-79.438;2023-03-14T10:49:54;15.90;34.70
33580;DHT22;19909;43.644;-79.438;2023-03-14T10:52:24;15.90;34.70
33580;DHT22;19909;43.644;-79.438;2023-03-14T10:55:00;16.00;35.70
33580;DHT22;19909;43.644;-79.438;2023-03-14T10:57:27;16.00;35.20
33580;DHT22;19909;43.644;-79.438;2023-03-14T10:59:54;16.00;35.00
33580;DHT22;19909;43.644;-79.438;2023-03-14T11:05:31;16.00;34.70
33580;DHT22;19909;43.644;-79.438;2023-03-14T11:08:11;16.00;34.60
33580;DHT22;19909;43.644;-79.438;2023-03-14T11:10:43;16.00;34.50
33580;DHT22;19909;43.644;-79.438;2023-03-14T11:13:29;16.00;35.10
33580;DHT22;19909;43.644;-79.438;2023-03-14T11:16:14;16.00;35.50
33580;DHT22;19909;43.644;-79.438;2023-03-14T11:19:17;16.00;35.10
33580;DHT22;19909;43.644;-79.438;2023-03-14T11:24:33;16.00;34.50
33580;DHT22;19909;43.644;-79.438;2023-03-14T11:27:21;15.90;35.10
33580;DHT22;19909;43.644;-79.438;2023-03-14T11:29:55;15.90;35.60
33580;DHT22;19909;43.644;-79.438;2023-03-14T11:32:46;15.90;35.00
33580;DHT22;19909;43.644;-79.438;2023-03-14T11:38:28;15.90;34.50
33580;DHT22;19909;43.644;-79.438;2023-03-14T11:40:57;16.00;35.00
33580;DHT22;19909;43.644;-79.438;2023-03-14T11:43:32;16.10;35.30
33580;DHT22;19909;43.644;-79.438;2023-03-14T11:51:54;16.10;34.50
33580;DHT22;19909;43.644;-79.438;2023-03-14T11:54:46;16.10;34.40
33580;DHT22;19909;43.644;-79.438;2023-03-14T11:57:19;16.10;34.50
33580;DHT22;19909;43.644;-79.438;2023-03-14T12:00:31;16.10;34.90
33580;DHT22;19909;43.644;-79.438;2023-03-14T12:10:54;16.00;34.50
33580;DHT22;19909;43.644;-79.438;2023-03-14T12:13:22;16.00;35.00
33580;DHT22;19909;43.644;-79.438;2023-03-14T12:15:59;16.00;35.40
33580;DHT22;19909;43.644;-79.438;2023-03-14T12:18:35;16.00;35.00
33580;DHT22;19909;43.644;-79.438;2023-03-14T12:21:11;16.00;34.60
33580;DHT22;19909;43.644;-79.438;2023-03-14T12:23:43;15.90;34.70
33580;DHT22;19909;43.644;-79.438;2023-03-14T12:26:18;15.90;35.00
33580;DHT22;19909;43.644;-79.438;2023-03-14T12:31:42;15.90;34.40
33580;DHT22;19909;43.644;-79.438;2023-03-14T12:44:46;16.10;34.50
33580;DHT22;19909;43.644;-79.438;2023-03-14T12:49:46;16.10;34.10
33580;DHT22;19909;43.644;-79.438;2023-03-14T12:52:33;16.10;34.00
33580;DHT22;19909;43.644;-79.438;2023-03-14T12:55:12;16.10;33.90
33580;DHT22;19909;43.644;-79.438;2023-03-14T13:00:29;16.10;34.50
33580;DHT22;19909;43.644;-79.438;2023-03-14T13:05:52;16.10;34.10
33580;DHT22;19909;43.644;-79.438;2023-03-14T13:08:39;16.00;33.90
33580;DHT22;19909;43.644;-79.438;2023-03-14T13:11:20;16.00;34.40
33580;DHT22;19909;43.644;-79.438;2023-03-14T13:13:56;16.00;34.80
33580;DHT22;19909;43.644;-79.438;2023-03-14T13:16:23;15.90;35.10
33580;DHT22;19909;43.644;-79.438;2023-03-14T13:19:09;15.90;34.40
33580;DHT22;19909;43.644;-79.438;2023-03-14T13:21:39;15.90;34.20
33580;DHT22;19909;43.644;-79.438;2023-03-14T13:24:18;15.90;34.10
33580;DHT22;19909;43.644;-79.438;2023-03-14T13:26:46;15.90;34.70
33580;DHT22;19909;43.644;-79.438;2023-03-14T13:29:18;15.90;35.00
33580;DHT22;19909;43.644;-79.438;2023-03-14T13:31:50;15.90;35.20
33580;DHT22;19909;43.644;-79.438;2023-03-14T13:34:17;15.90;34.60
33580;DHT22;19909;43.644;-79.438;2023-03-14T13:36:43;15.90;34.60
33580;DHT22;19909;43.644;-79.438;2023-03-14T13:39:20;15.90;34.40
33580;DHT22;19909;43.644;-79.438;2023-03-14T13:41:50;15.80;35.00
33580;DHT22;19909;43.644;-79.438;2023-03-14T13:44:23;15.90;35.10
33580;DHT22;19909;43.644;-79.438;2023-03-14T13:46:50;15.80;35.20
33580;DHT22;19909;43.644;-79.438;2023-03-14T13:49:26;15.90;35.00
33580;DHT22;19909;43.644;-79.438;2023-03-14T13:51:54;15.80;34.90
33580;DHT22;19909;43.644;-79.438;2023-03-14T13:54:21;15.80;34.90
33580;DHT22;19909;43.644;-79.438;2023-03-14T13:56:49;15.80;35.00
33580;DHT22;19909;43.644;-79.438;2023-03-14T13:59:30;15.80;35.20
33580;DHT22;19909;43.644;-79.438;2023-03-14T14:02:01;15.80;35.30
33580;DHT22;19909;43.644;-79.438;2023-03-14T14:04:29;15.80;34.70
33580;DHT22;19909;43.644;-79.438;2023-03-14T14:07:09;15.80;34.60
33580;DHT22;19909;43.644;-79.438;2023-03-14T14:09:40;15.80;34.80
33580;DHT22;19909;43.644;-79.438;2023-03-14T14:12:26;15.80;35.10
33580;DHT22;19909;43.644;-79.438;2023-03-14T14:15:07;15.70;35.70
33580;DHT22;19909;43.644;-79.438;2023-03-14T14:17:39;15.70;35.30
33580;DHT22;19909;43.644;-79.438;2023-03-14T14:23:00;15.70;34.80
33580;DHT22;19909;43.644;-79.438;2023-03-14T14:25:28;15.70;34.50
33580;DHT22;19909;43.644;-79.438;2023-03-14T14:27:55;15.70;35.10
33580;DHT22;19909;43.644;-79.438;2023-03-14T14:32:49;15.70;35.20
33580;DHT22;19909;43.644;-79.438;2023-03-14T14:35:34;15.70;34.80
33580;DHT22;19909;43.644;-79.438;2023-03-14T14:38:02;15.70;34.90
33580;DHT22;19909;43.644;-79.438;2023-03-14T14:40:30;15.70;34.60
33580;DHT22;19909;43.644;-79.438;2023-03-14T14:43:05;15.70;34.70
33580;DHT22;19909;43.644;-79.438;2023-03-14T14:45:34;15.60;35.10
33580;DHT22;19909;43.644;-79.438;2023-03-14T14:50:36;15.60;34.90
33580;DHT22;19909;43.644;-79.438;2023-03-14T14:56:00;15.60;34.40
33580;DHT22;19909;43.644;-79.438;2023-03-14T14:58:39;15.60;34.90
33580;DHT22;19909;43.644;-79.438;2023-03-14T15:01:12;15.60;34.80
33580;DHT22;19909;43.644;-79.438;2023-03-14T15:03:43;15.60;34.50
33580;DHT22;19909;43.644;-79.438;2023-03-14T15:06:12;15.50;33.90
33580;DHT22;19909;43.644;-79.438;2023-03-14T15:08:38;15.60;33.80
33580;DHT22;19909;43.644;-79.438;2023-03-14T15:11:04;15.70;33.90
33580;DHT22;19909;43.644;-79.438;2023-03-14T15:13:31;15.80;33.80
33580;DHT22;19909;43.644;-79.438;2023-03-14T15:15:57;15.90;34.10
33580;DHT22;19909;43.644;-79.438;2023-03-14T15:18:25;15.90;34.20
33580;DHT22;19909;43.644;-79.438;2023-03-14T15:20:51;15.90;34.20
33580;DHT22;19909;43.644;-79.438;2023-03-14T15:23:20;15.90;34.00
33580;DHT22;19909;43.644;-79.438;2023-03-14T15:25:46;15.90;34.00
33580;DHT22;19909;43.644;-79.438;2023-03-14T15:28:22;15.90;34.20
33580;DHT22;19909;43.644;-79.438;2023-03-14T15:30:51;15.90;33.80
33580;DHT22;19909;43.644;-79.438;2023-03-14T15:33:17;15.90;33.30
33580;DHT22;19909;43.644;-79.438;2023-03-14T15:35:44;15.90;33.10
33580;DHT22;19909;43.644;-79.438;2023-03-14T15:38:21;15.90;33.10
33580;DHT22;19909;43.644;-79.438;2023-03-14T15:40:49;15.80;33.50
33580;DHT22;19909;43.644;-79.438;2023-03-14T15:43:16;15.80;33.90
33580;DHT22;19909;43.644;-79.438;2023-03-14T15:45:43;15.80;34.30
33580;DHT22;19909;43.644;-79.438;2023-03-14T15:48:15;15.80;33.80
33580;DHT22;19909;43.644;-79.438;2023-03-14T15:50:42;15.80;33.40
33580;DHT22;19909;43.644;-79.438;2023-03-14T15:53:09;15.80;33.20
33580;DHT22;19909;43.644;-79.438;2023-03-14T15:55:35;15.80;33.40
33580;DHT22;19909;43.644;-79.438;2023-03-14T15:58:01;15.80;34.00
33580;DHT22;19909;43.644;-79.438;2023-03-14T16:00:29;15.80;33.70
33580;DHT22;19909;43.644;-79.438;2023-03-14T16:02:55;15.80;33.80
33580;DHT22;19909;43.644;-79.438;2023-03-14T16:05:22;15.80;33.30
33580;DHT22;19909;43.644;-79.438;2023-03-14T16:07:48;15.70;33.40
33580;DHT22;19909;43.644;-79.438;2023-03-14T16:10:15;15.80;33.60
33580;DHT22;19909;43.644;-79.438;2023-03-14T16:12:42;15.70;34.00
33580;DHT22;19909;43.644;-79.438;2023-03-14T16:15:09;15.70;33.90
33580;DHT22;19909;43.644;-79.438;2023-03-14T16:17:35;15.70;34.40
33580;DHT22;19909;43.644;-79.438;2023-03-14T16:20:04;15.70;33.70